Wemyss Bay, United Kingdom
Current Conditions -  °F | °C
As of 12:20 AM on Wednesday 26 Nov 2014 (Local Time) from EGPF Reporting Station
Few Clouds Few Clouds  
Wind Chill: 45°   Ceiling: Unl
Heat Index: 45°   Visibility: 4mi
Dew Point: 43°   Wind: 2mph
Humidity: 93%   Direction: 50°NE
Pressure: 30.09"   Gusts: NA
Location:  55.88°N, 4.89°W
Report Text: EGPF 260020Z AUTO 05002KT 6000 FEW042 07/06 Q1019
Loading
Personal Weather Stations






























Interactive Weather Map New forecast layout! Learn more

10-Day Weather Forecast

Advertisements
Track Severe Weather on mobile